sensor_id;sensor_type;location;lat;lon;timestamp;pressure;altitude;pressure_sealevel;temperature;humidity
30073;BME280;16897;52.422;13.678;2022-09-09T00:01:08;100666.13;;;19.37;53.34
30073;BME280;16897;52.422;13.678;2022-09-09T00:05:29;100666.97;;;19.28;53.82
30073;BME280;16897;52.422;13.678;2022-09-09T00:10:04;100655.00;;;19.14;53.75
30073;BME280;16897;52.422;13.678;2022-09-09T00:14:01;100671.88;;;19.13;53.29
30073;BME280;16897;52.422;13.678;2022-09-09T00:18:32;100675.94;;;19.07;53.50
30073;BME280;16897;52.422;13.678;2022-09-09T00:22:37;100660.34;;;18.94;53.62
30073;BME280;16897;52.422;13.678;2022-09-09T00:26:52;100646.16;;;18.86;53.53
30073;BME280;16897;52.422;13.678;2022-09-09T00:30:56;100634.56;;;18.67;53.46
30073;BME280;16897;52.422;13.678;2022-09-09T00:39:27;100666.06;;;18.80;53.82
30073;BME280;16897;52.422;13.678;2022-09-09T00:43:36;100660.88;;;18.69;53.90
30073;BME280;16897;52.422;13.678;2022-09-09T00:47:51;100669.78;;;18.68;53.48
30073;BME280;16897;52.422;13.678;2022-09-09T00:52:05;100679.50;;;18.57;54.09
30073;BME280;16897;52.422;13.678;2022-09-09T00:56:18;100652.91;;;18.40;53.83
30073;BME280;16897;52.422;13.678;2022-09-09T01:00:30;100675.19;;;18.47;53.66
30073;BME280;16897;52.422;13.678;2022-09-09T01:04:34;100605.69;;;17.96;53.63
30073;BME280;16897;52.422;13.678;2022-09-09T01:09:02;100651.34;;;18.27;53.92
30073;BME280;16897;52.422;13.678;2022-09-09T01:13:11;100668.63;;;18.31;53.59
30073;BME280;16897;52.422;13.678;2022-09-09T01:17:26;100682.13;;;18.28;53.52
30073;BME280;16897;52.422;13.678;2022-09-09T01:21:53;100681.09;;;18.20;53.80
30073;BME280;16897;52.422;13.678;2022-09-09T01:30:25;100664.38;;;18.00;53.81
30073;BME280;16897;52.422;13.678;2022-09-09T01:34:33;100663.81;;;17.96;54.02
30073;BME280;16897;52.422;13.678;2022-09-09T01:38:37;100662.94;;;17.86;53.92
30073;BME280;16897;52.422;13.678;2022-09-09T01:42:39;100615.38;;;17.55;53.81
30073;BME280;16897;52.422;13.678;2022-09-09T01:46:40;100676.13;;;17.86;53.96
30073;BME280;16897;52.422;13.678;2022-09-09T01:50:49;100678.22;;;17.82;53.97
30073;BME280;16897;52.422;13.678;2022-09-09T01:54:50;100658.38;;;17.67;53.98
30073;BME280;16897;52.422;13.678;2022-09-09T01:59:24;100661.13;;;17.65;53.96
30073;BME280;16897;52.422;13.678;2022-09-09T02:03:33;100672.69;;;17.64;53.83
30073;BME280;16897;52.422;13.678;2022-09-09T02:07:49;100620.97;;;17.31;53.91
30073;BME280;16897;52.422;13.678;2022-09-09T02:12:13;100669.47;;;17.61;53.98
30073;BME280;16897;52.422;13.678;2022-09-09T02:16:25;100691.69;;;17.58;53.72
30073;BME280;16897;52.422;13.678;2022-09-09T02:20:30;100680.25;;;17.48;53.80
30073;BME280;16897;52.422;13.678;2022-09-09T02:24:36;100674.97;;;17.48;53.92
30073;BME280;16897;52.422;13.678;2022-09-09T02:28:54;100667.38;;;17.34;53.82
30073;BME280;16897;52.422;13.678;2022-09-09T02:32:56;100673.75;;;17.31;53.71
30073;BME280;16897;52.422;13.678;2022-09-09T02:37:13;100690.41;;;17.32;53.96
30073;BME280;16897;52.422;13.678;2022-09-09T02:41:22;100693.88;;;17.32;53.99
30073;BME280;16897;52.422;13.678;2022-09-09T02:45:29;100583.53;;;16.63;53.81
30073;BME280;16897;52.422;13.678;2022-09-09T02:58:11;100634.72;;;16.60;53.86
30073;BME280;16897;52.422;13.678;2022-09-09T03:02:15;100693.47;;;16.95;53.98
30073;BME280;16897;52.422;13.678;2022-09-09T03:06:20;100683.81;;;16.84;53.84
30073;BME280;16897;52.422;13.678;2022-09-09T03:10:29;100601.41;;;16.27;53.92
30073;BME280;16897;52.422;13.678;2022-09-09T03:14:30;100621.56;;;16.28;54.05
30073;BME280;16897;52.422;13.678;2022-09-09T03:18:32;100683.09;;;16.71;54.11
30073;BME280;16897;52.422;13.678;2022-09-09T03:22:35;100687.91;;;16.66;54.08
30073;BME280;16897;52.422;13.678;2022-09-09T03:26:37;100686.75;;;16.58;54.29
30073;BME280;16897;52.422;13.678;2022-09-09T03:30:42;100685.06;;;16.57;54.17
30073;BME280;16897;52.422;13.678;2022-09-09T03:34:44;100686.28;;;16.53;54.06
30073;BME280;16897;52.422;13.678;2022-09-09T03:38:49;100691.56;;;16.53;54.18
30073;BME280;16897;52.422;13.678;2022-09-09T03:42:52;100703.91;;;16.53;53.99
30073;BME280;16897;52.422;13.678;2022-09-09T03:46:54;100692.44;;;16.43;54.24
30073;BME280;16897;52.422;13.678;2022-09-09T03:50:55;100702.25;;;16.41;54.13
30073;BME280;16897;52.422;13.678;2022-09-09T03:54:59;100688.72;;;16.23;54.36
30073;BME280;16897;52.422;13.678;2022-09-09T03:59:01;100649.25;;;16.00;54.16
30073;BME280;16897;52.422;13.678;2022-09-09T04:03:03;100706.78;;;16.38;54.31
30073;BME280;16897;52.422;13.678;2022-09-09T04:07:05;100688.88;;;16.21;54.14
30073;BME280;16897;52.422;13.678;2022-09-09T04:11:09;100698.09;;;16.27;54.21
30073;BME280;16897;52.422;13.678;2022-09-09T04:15:13;100696.31;;;16.16;54.43
30073;BME280;16897;52.422;13.678;2022-09-09T04:19:14;100682.53;;;16.01;54.33
30073;BME280;16897;52.422;13.678;2022-09-09T04:23:18;100660.88;;;15.86;54.36
30073;BME280;16897;52.422;13.678;2022-09-09T04:27:20;100710.91;;;16.09;54.38
30073;BME280;16897;52.422;13.678;2022-09-09T04:31:22;100719.44;;;16.12;54.37
30073;BME280;16897;52.422;13.678;2022-09-09T04:35:27;100711.41;;;16.03;54.41
30073;BME280;16897;52.422;13.678;2022-09-09T04:39:29;100671.91;;;15.69;54.52
30073;BME280;16897;52.422;13.678;2022-09-09T04:43:30;100608.31;;;15.40;54.42
30073;BME280;16897;52.422;13.678;2022-09-09T04:47:33;100653.66;;;15.55;54.43
30073;BME280;16897;52.422;13.678;2022-09-09T04:51:35;100646.97;;;15.39;54.55
30073;BME280;16897;52.422;13.678;2022-09-09T04:55:38;100689.38;;;15.70;54.49
30073;BME280;16897;52.422;13.678;2022-09-09T04:59:40;100661.53;;;15.43;54.57
30073;BME280;16897;52.422;13.678;2022-09-09T05:03:42;100658.91;;;15.32;54.44
30073;BME280;16897;52.422;13.678;2022-09-09T05:07:46;100730.28;;;15.74;54.59
30073;BME280;16897;52.422;13.678;2022-09-09T05:11:50;100658.06;;;15.32;54.62
30073;BME280;16897;52.422;13.678;2022-09-09T05:16:01;100715.91;;;15.67;54.66
30073;BME280;16897;52.422;13.678;2022-09-09T05:20:03;100685.00;;;15.46;54.78
30073;BME280;16897;52.422;13.678;2022-09-09T05:24:06;100751.16;;;15.88;54.74
30073;BME280;16897;52.422;13.678;2022-09-09T05:28:08;100705.00;;;15.60;54.63
30073;BME280;16897;52.422;13.678;2022-09-09T05:32:09;100703.09;;;15.62;54.62
30073;BME280;16897;52.422;13.678;2022-09-09T05:36:16;100679.00;;;15.44;54.81
30073;BME280;16897;52.422;13.678;2022-09-09T05:40:18;100693.53;;;15.61;54.59
30073;BME280;16897;52.422;13.678;2022-09-09T05:44:20;100699.63;;;15.62;54.85
30073;BME280;16897;52.422;13.678;2022-09-09T05:48:21;100745.88;;;15.88;54.88
30073;BME280;16897;52.422;13.678;2022-09-09T05:52:23;100721.09;;;15.80;54.82
30073;BME280;16897;52.422;13.678;2022-09-09T05:56:28;100703.56;;;15.67;54.90
30073;BME280;16897;52.422;13.678;2022-09-09T06:00:31;100682.50;;;15.56;55.05
30073;BME280;16897;52.422;13.678;2022-09-09T06:04:33;100635.72;;;15.48;54.97
30073;BME280;16897;52.422;13.678;2022-09-09T06:08:38;100684.00;;;15.83;55.17
30073;BME280;16897;52.422;13.678;2022-09-09T06:12:40;100685.53;;;15.97;54.96
30073;BME280;16897;52.422;13.678;2022-09-09T06:20:59;100714.84;;;16.37;55.09
30073;BME280;16897;52.422;13.678;2022-09-09T06:25:02;100632.13;;;16.06;55.11
30073;BME280;16897;52.422;13.678;2022-09-09T06:29:04;100733.81;;;16.74;55.36
30073;BME280;16897;52.422;13.678;2022-09-09T06:33:06;100668.91;;;16.51;55.18
30073;BME280;16897;52.422;13.678;2022-09-09T06:37:09;100697.50;;;16.78;55.25
30073;BME280;16897;52.422;13.678;2022-09-09T06:41:17;100680.03;;;16.77;55.43
30073;BME280;16897;52.422;13.678;2022-09-09T06:45:20;100739.41;;;17.24;55.11
30073;BME280;16897;52.422;13.678;2022-09-09T06:49:28;100709.44;;;17.14;55.21
30073;BME280;16897;52.422;13.678;2022-09-09T06:53:35;100701.34;;;17.27;55.24
30073;BME280;16897;52.422;13.678;2022-09-09T06:57:41;100705.88;;;17.36;55.54
30073;BME280;16897;52.422;13.678;2022-09-09T07:01:49;100733.16;;;17.67;55.35
30073;BME280;16897;52.422;13.678;2022-09-09T07:05:54;100678.69;;;17.45;55.39
30073;BME280;16897;52.422;13.678;2022-09-09T07:09:58;100715.56;;;17.78;55.24
30073;BME280;16897;52.422;13.678;2022-09-09T07:14:00;100726.59;;;17.83;55.26
30073;BME280;16897;52.422;13.678;2022-09-09T07:18:04;100724.44;;;17.98;55.21
30073;BME280;16897;52.422;13.678;2022-09-09T07:22:06;100718.22;;;18.08;55.46
30073;BME280;16897;52.422;13.678;2022-09-09T07:26:11;100657.75;;;17.84;55.41
30073;BME280;16897;52.422;13.678;2022-09-09T07:30:15;100656.31;;;18.01;55.56
30073;BME280;16897;52.422;13.678;2022-09-09T07:34:17;100695.06;;;18.41;55.68
30073;BME280;16897;52.422;13.678;2022-09-09T07:38:20;100655.41;;;18.31;55.48
30073;BME280;16897;52.422;13.678;2022-09-09T07:42:23;100664.75;;;18.55;55.62
30073;BME280;16897;52.422;13.678;2022-09-09T07:46:25;100674.28;;;18.77;55.63
30073;BME280;16897;52.422;13.678;2022-09-09T07:50:27;100791.53;;;19.65;55.57
30073;BME280;16897;52.422;13.678;2022-09-09T07:54:29;100739.72;;;19.43;55.55
30073;BME280;16897;52.422;13.678;2022-09-09T07:58:32;100665.59;;;19.14;55.69
30073;BME280;16897;52.422;13.678;2022-09-09T08:02:35;100751.13;;;19.73;55.40
30073;BME280;16897;52.422;13.678;2022-09-09T08:06:39;100745.09;;;19.80;55.65
30073;BME280;16897;52.422;13.678;2022-09-09T08:10:42;100726.25;;;19.83;55.65
30073;BME280;16897;52.422;13.678;2022-09-09T08:14:44;100719.22;;;20.02;55.81
30073;BME280;16897;52.422;13.678;2022-09-09T08:18:46;100746.13;;;20.34;55.96
30073;BME280;16897;52.422;13.678;2022-09-09T08:22:49;100740.63;;;20.46;55.53
30073;BME280;16897;52.422;13.678;2022-09-09T08:26:51;100771.78;;;20.71;55.41
30073;BME280;16897;52.422;13.678;2022-09-09T08:31:05;100809.69;;;21.09;55.50
30073;BME280;16897;52.422;13.678;2022-09-09T08:35:08;100746.47;;;20.77;55.33
30073;BME280;16897;52.422;13.678;2022-09-09T08:39:11;100814.06;;;21.18;55.25
30073;BME280;16897;52.422;13.678;2022-09-09T08:43:14;100750.09;;;20.76;55.27
30073;BME280;16897;52.422;13.678;2022-09-09T08:47:29;100819.38;;;21.18;55.32
30073;BME280;16897;52.422;13.678;2022-09-09T08:51:34;100775.28;;;20.90;55.25
30073;BME280;16897;52.422;13.678;2022-09-09T08:55:45;100748.00;;;20.80;55.10
30073;BME280;16897;52.422;13.678;2022-09-09T08:59:52;100690.91;;;20.48;55.22
30073;BME280;16897;52.422;13.678;2022-09-09T09:12:38;100734.00;;;21.31;55.47
30073;BME280;16897;52.422;13.678;2022-09-09T09:17:04;100780.66;;;21.70;55.43
30073;BME280;16897;52.422;13.678;2022-09-09T09:21:39;100742.38;;;21.62;55.15
30073;BME280;16897;52.422;13.678;2022-09-09T09:25:43;100749.63;;;21.78;55.03
30073;BME280;16897;52.422;13.678;2022-09-09T09:29:45;100781.56;;;22.13;55.08
30073;BME280;16897;52.422;13.678;2022-09-09T09:33:51;100771.75;;;22.13;55.30
30073;BME280;16897;52.422;13.678;2022-09-09T09:37:55;100822.19;;;22.57;55.02
30073;BME280;16897;52.422;13.678;2022-09-09T09:41:57;100805.41;;;22.57;55.36
30073;BME280;16897;52.422;13.678;2022-09-09T09:46:05;100815.47;;;22.79;54.92
30073;BME280;16897;52.422;13.678;2022-09-09T09:50:19;100777.53;;;22.77;55.11
30073;BME280;16897;52.422;13.678;2022-09-09T09:54:37;100799.94;;;23.17;54.86
30073;BME280;16897;52.422;13.678;2022-09-09T10:03:22;100731.75;;;22.90;54.78
30073;BME280;16897;52.422;13.678;2022-09-09T10:07:22;100720.13;;;22.91;54.60
30073;BME280;16897;52.422;13.678;2022-09-09T10:11:44;100784.91;;;23.49;54.97
30073;BME280;16897;52.422;13.678;2022-09-09T10:16:07;100807.59;;;23.77;55.03
30073;BME280;16897;52.422;13.678;2022-09-09T10:20:32;100807.91;;;23.99;55.10
30073;BME280;16897;52.422;13.678;2022-09-09T10:33:32;100808.59;;;24.48;55.00
30073;BME280;16897;52.422;13.678;2022-09-09T10:38:32;100713.66;;;24.06;54.85
30073;BME280;16897;52.422;13.678;2022-09-09T10:42:13;100758.69;;;24.41;54.47
30073;BME280;16897;52.422;13.678;2022-09-09T10:50:58;100767.66;;;24.56;54.13
30073;BME280;16897;52.422;13.678;2022-09-09T10:55:20;100751.69;;;24.48;53.83
30073;BME280;16897;52.422;13.678;2022-09-09T10:59:33;100744.34;;;24.42;53.58
30073;BME280;16897;52.422;13.678;2022-09-09T11:03:37;100739.69;;;24.36;54.18
30073;BME280;16897;52.422;13.678;2022-09-09T11:07:54;100771.16;;;24.57;53.98
30073;BME280;16897;52.422;13.678;2022-09-09T11:12:00;100815.41;;;24.90;53.67
30073;BME280;16897;52.422;13.678;2022-09-09T11:16:15;100749.28;;;24.61;53.44
30073;BME280;16897;52.422;13.678;2022-09-09T11:20:18;100751.91;;;24.69;53.36
30073;BME280;16897;52.422;13.678;2022-09-09T11:38:32;100816.78;;;25.09;53.82
30073;BME280;16897;52.422;13.678;2022-09-09T11:46:08;100798.03;;;25.17;53.55
30073;BME280;16897;52.422;13.678;2022-09-09T11:54:30;100792.56;;;25.34;53.32
30073;BME280;16897;52.422;13.678;2022-09-09T11:58:43;100764.16;;;25.33;53.44
30073;BME280;16897;52.422;13.678;2022-09-09T12:02:49;100786.72;;;25.53;53.17
30073;BME280;16897;52.422;13.678;2022-09-09T12:07:00;100762.47;;;25.55;53.03
30073;BME280;16897;52.422;13.678;2022-09-09T12:11:04;100779.47;;;25.77;53.15
30073;BME280;16897;52.422;13.678;2022-09-09T12:19:16;100729.28;;;25.64;53.02
30073;BME280;16897;52.422;13.678;2022-09-09T12:23:34;100752.13;;;25.90;52.82
30073;BME280;16897;52.422;13.678;2022-09-09T12:28:00;100779.88;;;26.03;52.82
30073;BME280;16897;52.422;13.678;2022-09-09T12:32:10;100767.31;;;25.89;52.14
30073;BME280;16897;52.422;13.678;2022-09-09T12:36:18;100767.31;;;25.89;52.29
30073;BME280;16897;52.422;13.678;2022-09-09T12:40:28;100758.47;;;25.89;52.33
30073;BME280;16897;52.422;13.678;2022-09-09T12:44:30;100744.63;;;25.85;52.12
30073;BME280;16897;52.422;13.678;2022-09-09T12:48:38;100747.75;;;25.89;52.14
30073;BME280;16897;52.422;13.678;2022-09-09T12:52:41;100758.47;;;25.89;52.03
30073;BME280;16897;52.422;13.678;2022-09-09T12:56:45;100736.94;;;25.82;52.41
30073;BME280;16897;52.422;13.678;2022-09-09T13:00:52;100753.38;;;25.94;52.30
30073;BME280;16897;52.422;13.678;2022-09-09T13:04:54;100747.09;;;25.87;51.64
30073;BME280;16897;52.422;13.678;2022-09-09T13:08:59;100745.34;;;25.79;51.76
30073;BME280;16897;52.422;13.678;2022-09-09T13:13:01;100740.53;;;25.74;51.72
30073;BME280;16897;52.422;13.678;2022-09-09T13:17:03;100750.50;;;25.80;51.83
30073;BME280;16897;52.422;13.678;2022-09-09T13:21:05;100754.78;;;25.90;51.73
30073;BME280;16897;52.422;13.678;2022-09-09T13:29:17;100744.81;;;25.98;51.77
30073;BME280;16897;52.422;13.678;2022-09-09T13:33:22;100705.50;;;25.84;51.38
30073;BME280;16897;52.422;13.678;2022-09-09T13:37:37;100726.63;;;25.94;51.80
30073;BME280;16897;52.422;13.678;2022-09-09T13:41:43;100688.31;;;25.64;51.56
30073;BME280;16897;52.422;13.678;2022-09-09T13:45:55;100712.31;;;25.72;51.34
30073;BME280;16897;52.422;13.678;2022-09-09T13:49:57;100731.59;;;25.82;51.69
30073;BME280;16897;52.422;13.678;2022-09-09T13:53:59;100719.69;;;25.70;51.57
30073;BME280;16897;52.422;13.678;2022-09-09T13:58:03;100744.50;;;25.78;51.31
30073;BME280;16897;52.422;13.678;2022-09-09T14:02:07;100675.00;;;25.41;51.29
30073;BME280;16897;52.422;13.678;2022-09-09T14:06:10;100665.88;;;25.35;51.12
30073;BME280;16897;52.422;13.678;2022-09-09T14:10:12;100708.63;;;25.58;50.92
30073;BME280;16897;52.422;13.678;2022-09-09T14:14:14;100655.28;;;25.27;51.25
30073;BME280;16897;52.422;13.678;2022-09-09T14:18:15;100666.25;;;25.32;51.11
30073;BME280;16897;52.422;13.678;2022-09-09T14:22:17;100694.00;;;25.46;50.93
30073;BME280;16897;52.422;13.678;2022-09-09T14:26:22;100639.59;;;25.24;51.00
30073;BME280;16897;52.422;13.678;2022-09-09T14:30:24;100671.50;;;25.40;51.14
30073;BME280;16897;52.422;13.678;2022-09-09T14:34:26;100663.22;;;25.35;51.15
30073;BME280;16897;52.422;13.678;2022-09-09T14:38:35;100627.16;;;25.16;51.07
30073;BME280;16897;52.422;13.678;2022-09-09T14:42:40;100658.16;;;25.40;50.90
30073;BME280;16897;52.422;13.678;2022-09-09T14:46:42;100680.66;;;25.60;51.14
30073;BME280;16897;52.422;13.678;2022-09-09T14:50:44;100652.44;;;25.43;51.17
30073;BME280;16897;52.422;13.678;2022-09-09T14:54:45;100681.03;;;25.57;50.76
30073;BME280;16897;52.422;13.678;2022-09-09T14:58:47;100597.16;;;25.06;51.04
30073;BME280;16897;52.422;13.678;2022-09-09T15:02:52;100705.66;;;25.68;50.79
30073;BME280;16897;52.422;13.678;2022-09-09T15:06:54;100639.34;;;25.33;51.21
30073;BME280;16897;52.422;13.678;2022-09-09T15:11:01;100643.84;;;25.33;50.73
30073;BME280;16897;52.422;13.678;2022-09-09T15:15:03;100657.16;;;25.41;50.77
30073;BME280;16897;52.422;13.678;2022-09-09T15:19:14;100690.53;;;25.45;50.79
30073;BME280;16897;52.422;13.678;2022-09-09T15:23:15;100669.84;;;25.24;50.77
30073;BME280;16897;52.422;13.678;2022-09-09T15:27:17;100681.28;;;25.33;50.58
30073;BME280;16897;52.422;13.678;2022-09-09T15:31:23;100671.59;;;25.32;50.68
30073;BME280;16897;52.422;13.678;2022-09-09T15:35:25;100628.75;;;25.02;50.41
30073;BME280;16897;52.422;13.678;2022-09-09T15:39:27;100648.69;;;25.14;50.78
30073;BME280;16897;52.422;13.678;2022-09-09T15:43:28;100639.09;;;25.05;50.62
30073;BME280;16897;52.422;13.678;2022-09-09T15:47:30;100657.38;;;25.16;50.67
30073;BME280;16897;52.422;13.678;2022-09-09T15:51:31;100614.44;;;24.80;50.73
30073;BME280;16897;52.422;13.678;2022-09-09T15:55:33;100665.44;;;25.08;50.65
30073;BME280;16897;52.422;13.678;2022-09-09T15:59:35;100668.91;;;24.94;50.78
30073;BME280;16897;52.422;13.678;2022-09-09T16:03:37;100676.03;;;24.79;50.84
30073;BME280;16897;52.422;13.678;2022-09-09T16:07:39;100671.19;;;24.59;50.74
30073;BME280;16897;52.422;13.678;2022-09-09T16:11:44;100668.28;;;24.38;50.94
30073;BME280;16897;52.422;13.678;2022-09-09T16:15:45;100621.72;;;23.86;51.06
30073;BME280;16897;52.422;13.678;2022-09-09T16:19:54;100643.44;;;23.75;51.18
30073;BME280;16897;52.422;13.678;2022-09-09T16:23:57;100702.91;;;23.83;50.91
30073;BME280;16897;52.422;13.678;2022-09-09T16:28:00;100671.00;;;23.34;50.89
30073;BME280;16897;52.422;13.678;2022-09-09T16:32:02;100782.25;;;23.81;50.73
30073;BME280;16897;52.422;13.678;2022-09-09T16:36:09;100768.94;;;23.49;50.96
30073;BME280;16897;52.422;13.678;2022-09-09T16:40:11;100766.59;;;23.37;50.95
30073;BME280;16897;52.422;13.678;2022-09-09T16:44:14;100750.47;;;23.23;50.71
30073;BME280;16897;52.422;13.678;2022-09-09T16:48:17;100716.66;;;22.99;50.74
30073;BME280;16897;52.422;13.678;2022-09-09T16:52:18;100752.25;;;22.97;50.69
30073;BME280;16897;52.422;13.678;2022-09-09T16:56:22;100754.56;;;22.92;50.80
30073;BME280;16897;52.422;13.678;2022-09-09T17:00:29;100745.22;;;22.72;50.79
30073;BME280;16897;52.422;13.678;2022-09-09T17:04:30;100687.91;;;22.35;51.02
30073;BME280;16897;52.422;13.678;2022-09-09T17:08:33;100672.88;;;22.18;50.90
30073;BME280;16897;52.422;13.678;2022-09-09T17:12:34;100649.13;;;21.82;50.82
30073;BME280;16897;52.422;13.678;2022-09-09T17:16:37;100735.09;;;22.25;50.81
30073;BME280;16897;52.422;13.678;2022-09-09T17:20:41;100766.72;;;22.28;51.11
30073;BME280;16897;52.422;13.678;2022-09-09T17:24:44;100672.50;;;21.70;50.69
30073;BME280;16897;52.422;13.678;2022-09-09T17:28:45;100704.78;;;21.83;50.81
30073;BME280;16897;52.422;13.678;2022-09-09T17:32:47;100624.22;;;21.23;50.99
30073;BME280;16897;52.422;13.678;2022-09-09T17:36:48;100639.59;;;21.19;51.18
30073;BME280;16897;52.422;13.678;2022-09-09T17:41:07;100698.34;;;21.60;50.75
30073;BME280;16897;52.422;13.678;2022-09-09T17:45:09;100686.69;;;21.53;50.88
30073;BME280;16897;52.422;13.678;2022-09-09T17:49:15;100762.53;;;21.99;50.98
30073;BME280;16897;52.422;13.678;2022-09-09T17:53:18;100757.88;;;21.93;50.88
30073;BME280;16897;52.422;13.678;2022-09-09T17:57:20;100676.78;;;21.19;51.13
30073;BME280;16897;52.422;13.678;2022-09-09T18:01:24;100742.44;;;21.45;50.97
30073;BME280;16897;52.422;13.678;2022-09-09T18:05:28;100669.63;;;20.75;51.17
30073;BME280;16897;52.422;13.678;2022-09-09T18:09:30;100776.88;;;21.18;51.06
30073;BME280;16897;52.422;13.678;2022-09-09T18:13:33;100749.25;;;20.75;50.94
30073;BME280;16897;52.422;13.678;2022-09-09T18:17:34;100809.22;;;20.96;51.07
30073;BME280;16897;52.422;13.678;2022-09-09T18:21:36;100791.63;;;20.67;51.48
30073;BME280;16897;52.422;13.678;2022-09-09T18:25:38;100805.34;;;20.63;51.62
30073;BME280;16897;52.422;13.678;2022-09-09T18:29:40;100794.38;;;20.48;51.81
30073;BME280;16897;52.422;13.678;2022-09-09T18:33:44;100794.66;;;20.45;51.91
30073;BME280;16897;52.422;13.678;2022-09-09T18:37:46;100803.03;;;20.50;51.79
30073;BME280;16897;52.422;13.678;2022-09-09T18:41:50;100800.09;;;20.43;51.75
30073;BME280;16897;52.422;13.678;2022-09-09T18:45:53;100796.41;;;20.36;51.80
30073;BME280;16897;52.422;13.678;2022-09-09T18:49:54;100800.72;;;20.27;51.77
30073;BME280;16897;52.422;13.678;2022-09-09T18:53:59;100811.75;;;20.32;51.65
30073;BME280;16897;52.422;13.678;2022-09-09T18:58:01;100823.44;;;20.40;51.96
30073;BME280;16897;52.422;13.678;2022-09-09T19:02:02;100826.13;;;20.30;51.76
30073;BME280;16897;52.422;13.678;2022-09-09T19:06:10;100808.28;;;20.22;51.79
30073;BME280;16897;52.422;13.678;2022-09-09T19:10:12;100833.22;;;20.39;51.83
30073;BME280;16897;52.422;13.678;2022-09-09T19:14:15;100787.72;;;20.06;51.95
30073;BME280;16897;52.422;13.678;2022-09-09T19:18:17;100786.03;;;20.05;52.25
30073;BME280;16897;52.422;13.678;2022-09-09T19:22:19;100761.13;;;19.88;51.99
30073;BME280;16897;52.422;13.678;2022-09-09T19:26:20;100826.03;;;20.22;52.00
30073;BME280;16897;52.422;13.678;2022-09-09T19:30:22;100804.06;;;19.92;52.24
30073;BME280;16897;52.422;13.678;2022-09-09T19:34:25;100787.06;;;19.65;52.18
30073;BME280;16897;52.422;13.678;2022-09-09T19:38:27;100848.56;;;19.98;52.29
30073;BME280;16897;52.422;13.678;2022-09-09T19:42:29;100785.16;;;19.58;52.23
30073;BME280;16897;52.422;13.678;2022-09-09T19:46:34;100810.06;;;19.65;52.42
30073;BME280;16897;52.422;13.678;2022-09-09T19:50:36;100794.06;;;19.57;52.43
30073;BME280;16897;52.422;13.678;2022-09-09T19:54:39;100814.16;;;19.69;52.46
30073;BME280;16897;52.422;13.678;2022-09-09T19:58:40;100693.50;;;18.89;52.74
30073;BME280;16897;52.422;13.678;2022-09-09T20:02:42;100727.47;;;19.13;52.49
30073;BME280;16897;52.422;13.678;2022-09-09T20:06:47;100687.06;;;18.82;52.57
30073;BME280;16897;52.422;13.678;2022-09-09T20:10:50;100768.44;;;19.28;52.52
30073;BME280;16897;52.422;13.678;2022-09-09T20:14:52;100809.81;;;19.49;52.75
30073;BME280;16897;52.422;13.678;2022-09-09T20:18:57;100762.00;;;19.11;52.70
30073;BME280;16897;52.422;13.678;2022-09-09T20:22:59;100767.03;;;19.14;52.64
30073;BME280;16897;52.422;13.678;2022-09-09T20:27:00;100773.72;;;19.18;52.63
30073;BME280;16897;52.422;13.678;2022-09-09T20:31:07;100836.72;;;19.54;52.66
30073;BME280;16897;52.422;13.678;2022-09-09T20:35:09;100754.63;;;18.95;52.50
30073;BME280;16897;52.422;13.678;2022-09-09T20:39:16;100748.38;;;18.96;52.44
30073;BME280;16897;52.422;13.678;2022-09-09T20:43:18;100837.28;;;19.57;52.57
30073;BME280;16897;52.422;13.678;2022-09-09T20:47:20;100740.41;;;19.06;52.58
30073;BME280;16897;52.422;13.678;2022-09-09T20:51:23;100828.50;;;19.57;52.71
30073;BME280;16897;52.422;13.678;2022-09-09T20:55:26;100808.28;;;19.46;52.84
30073;BME280;16897;52.422;13.678;2022-09-09T20:59:28;100738.06;;;19.03;52.43
30073;BME280;16897;52.422;13.678;2022-09-09T21:03:35;100820.41;;;19.49;52.52
30073;BME280;16897;52.422;13.678;2022-09-09T21:07:40;100796.31;;;19.32;52.79
30073;BME280;16897;52.422;13.678;2022-09-09T21:11:41;100797.56;;;19.28;52.72
30073;BME280;16897;52.422;13.678;2022-09-09T21:15:44;100786.53;;;19.13;52.50
30073;BME280;16897;52.422;13.678;2022-09-09T21:19:46;100819.72;;;19.27;52.66
30073;BME280;16897;52.422;13.678;2022-09-09T21:23:48;100817.47;;;19.22;52.55
30073;BME280;16897;52.422;13.678;2022-09-09T21:27:50;100821.38;;;19.18;52.68
30073;BME280;16897;52.422;13.678;2022-09-09T21:31:52;100805.34;;;19.00;52.79
30073;BME280;16897;52.422;13.678;2022-09-09T21:36:01;100835.31;;;19.11;52.81
30073;BME280;16897;52.422;13.678;2022-09-09T21:40:04;100822.59;;;18.95;52.89
30073;BME280;16897;52.422;13.678;2022-09-09T21:44:06;100745.47;;;18.49;53.14
30073;BME280;16897;52.422;13.678;2022-09-09T21:48:12;100828.31;;;19.00;52.82
30073;BME280;16897;52.422;13.678;2022-09-09T21:52:13;100781.31;;;18.73;53.02
30073;BME280;16897;52.422;13.678;2022-09-09T21:56:17;100843.41;;;19.09;52.74
30073;BME280;16897;52.422;13.678;2022-09-09T22:00:19;100822.47;;;18.96;52.77
30073;BME280;16897;52.422;13.678;2022-09-09T22:04:20;100755.97;;;18.61;53.20
30073;BME280;16897;52.422;13.678;2022-09-09T22:08:22;100819.00;;;18.96;53.12
30073;BME280;16897;52.422;13.678;2022-09-09T22:12:23;100830.13;;;18.99;53.00
30073;BME280;16897;52.422;13.678;2022-09-09T22:16:25;100827.63;;;18.98;53.03
30073;BME280;16897;52.422;13.678;2022-09-09T22:20:26;100768.19;;;18.62;52.82
30073;BME280;16897;52.422;13.678;2022-09-09T22:24:29;100822.16;;;18.90;52.99